Frazier Park, California
Current Conditions -  °F | °C
As of 3:48 PM on Sunday 25 Jan 2015 (Local Time) from KSDB Reporting Station
Clear Clear  
Wind Chill: 60°   Ceiling: Unl
Heat Index: 60°   Visibility: 10mi
Dew Point: 27°   Wind: 20mph
Humidity: 28%   Direction: 70°ENE
Pressure: 30.14"   Gusts: 31mph
Location:  34.82°N, 118.95°W
Report Text: KSDB 252348Z AUTO 07017G27KT 10SM CLR 16/M03 A3014 RMK AO2 PK WND 08031/2311 SLP174 T01561028 10167 20139 56003 $
Loading
Personal Weather Stations






























Interactive Weather Map New forecast layout! Learn more

10-Day Weather Forecast

Advertisements
Track Severe Weather on mobile